sensor_id;sensor_type;location;lat;lon;timestamp;P1;durP1;ratioP1;P2;durP2;ratioP2
15848;SDS011;8024;48.708;9.394;2023-02-22T00:01:18;6.77;;;6.10;;
15848;SDS011;8024;48.708;9.394;2023-02-22T00:03:59;8.10;;;6.13;;
15848;SDS011;8024;48.708;9.394;2023-02-22T00:06:29;10.60;;;6.57;;
15848;SDS011;8024;48.708;9.394;2023-02-22T00:08:56;9.20;;;7.03;;
15848;SDS011;8024;48.708;9.394;2023-02-22T00:11:24;6.97;;;6.27;;
15848;SDS011;8024;48.708;9.394;2023-02-22T00:13:51;7.43;;;5.90;;
15848;SDS011;8024;48.708;9.394;2023-02-22T00:16:21;7.13;;;6.33;;
15848;SDS011;8024;48.708;9.394;2023-02-22T00:18:49;8.17;;;6.57;;
15848;SDS011;8024;48.708;9.394;2023-02-22T00:21:17;7.53;;;6.47;;
15848;SDS011;8024;48.708;9.394;2023-02-22T00:23:46;8.53;;;5.87;;
15848;SDS011;8024;48.708;9.394;2023-02-22T00:26:16;6.63;;;5.93;;
15848;SDS011;8024;48.708;9.394;2023-02-22T00:28:44;7.13;;;5.50;;
15848;SDS011;8024;48.708;9.394;2023-02-22T00:31:12;7.23;;;6.07;;
15848;SDS011;8024;48.708;9.394;2023-02-22T00:33:39;11.50;;;6.70;;
15848;SDS011;8024;48.708;9.394;2023-02-22T00:36:07;11.87;;;6.67;;
15848;SDS011;8024;48.708;9.394;2023-02-22T00:38:36;8.33;;;6.70;;
15848;SDS011;8024;48.708;9.394;2023-02-22T00:41:04;7.63;;;6.23;;
15848;SDS011;8024;48.708;9.394;2023-02-22T00:43:32;7.93;;;6.90;;
15848;SDS011;8024;48.708;9.394;2023-02-22T00:45:59;9.27;;;7.70;;
15848;SDS011;8024;48.708;9.394;2023-02-22T00:48:26;8.60;;;7.27;;
15848;SDS011;8024;48.708;9.394;2023-02-22T00:50:53;8.03;;;6.70;;
15848;SDS011;8024;48.708;9.394;2023-02-22T00:53:21;9.60;;;7.23;;
15848;SDS011;8024;48.708;9.394;2023-02-22T00:55:49;8.97;;;8.07;;
15848;SDS011;8024;48.708;9.394;2023-02-22T00:58:18;9.27;;;7.77;;
15848;SDS011;8024;48.708;9.394;2023-02-22T01:00:46;10.13;;;8.27;;
15848;SDS011;8024;48.708;9.394;2023-02-22T01:03:15;12.77;;;8.77;;
15848;SDS011;8024;48.708;9.394;2023-02-22T01:05:44;9.17;;;7.83;;
15848;SDS011;8024;48.708;9.394;2023-02-22T01:08:12;9.47;;;7.93;;
15848;SDS011;8024;48.708;9.394;2023-02-22T01:10:40;8.37;;;7.37;;
15848;SDS011;8024;48.708;9.394;2023-02-22T01:13:08;7.13;;;6.40;;
15848;SDS011;8024;48.708;9.394;2023-02-22T01:15:38;9.80;;;6.93;;
15848;SDS011;8024;48.708;9.394;2023-02-22T01:18:06;6.90;;;6.13;;
15848;SDS011;8024;48.708;9.394;2023-02-22T01:20:35;9.73;;;7.47;;
15848;SDS011;8024;48.708;9.394;2023-02-22T01:23:03;10.90;;;6.60;;
15848;SDS011;8024;48.708;9.394;2023-02-22T01:25:32;7.87;;;6.20;;
15848;SDS011;8024;48.708;9.394;2023-02-22T01:28:00;8.47;;;6.50;;
15848;SDS011;8024;48.708;9.394;2023-02-22T01:30:30;6.80;;;6.10;;
15848;SDS011;8024;48.708;9.394;2023-02-22T01:33:00;6.43;;;5.83;;
15848;SDS011;8024;48.708;9.394;2023-02-22T01:35:29;7.67;;;6.27;;
15848;SDS011;8024;48.708;9.394;2023-02-22T01:37:59;6.37;;;5.70;;
15848;SDS011;8024;48.708;9.394;2023-02-22T01:40:27;7.20;;;6.17;;
15848;SDS011;8024;48.708;9.394;2023-02-22T01:42:56;6.80;;;6.03;;
15848;SDS011;8024;48.708;9.394;2023-02-22T01:48:17;5.53;;;4.87;;
15848;SDS011;8024;48.708;9.394;2023-02-22T01:50:51;7.00;;;6.30;;
15848;SDS011;8024;48.708;9.394;2023-02-22T01:53:21;7.03;;;5.87;;
15848;SDS011;8024;48.708;9.394;2023-02-22T01:55:51;9.43;;;5.40;;
15848;SDS011;8024;48.708;9.394;2023-02-22T01:58:22;7.03;;;5.47;;
15848;SDS011;8024;48.708;9.394;2023-02-22T02:00:51;6.50;;;5.23;;
15848;SDS011;8024;48.708;9.394;2023-02-22T02:03:20;5.27;;;4.77;;
15848;SDS011;8024;48.708;9.394;2023-02-22T02:05:51;7.60;;;5.70;;
15848;SDS011;8024;48.708;9.394;2023-02-22T02:08:23;7.83;;;6.10;;
15848;SDS011;8024;48.708;9.394;2023-02-22T02:10:56;6.03;;;5.43;;
15848;SDS011;8024;48.708;9.394;2023-02-22T02:13:25;6.77;;;5.67;;
15848;SDS011;8024;48.708;9.394;2023-02-22T02:15:53;6.43;;;5.73;;
15848;SDS011;8024;48.708;9.394;2023-02-22T02:18:22;6.70;;;6.10;;
15848;SDS011;8024;48.708;9.394;2023-02-22T02:20:55;8.73;;;6.37;;
15848;SDS011;8024;48.708;9.394;2023-02-22T02:23:50;8.70;;;6.30;;
15848;SDS011;8024;48.708;9.394;2023-02-22T02:26:46;7.57;;;5.93;;
15848;SDS011;8024;48.708;9.394;2023-02-22T02:32:44;8.40;;;5.60;;
15848;SDS011;8024;48.708;9.394;2023-02-22T02:35:20;7.37;;;5.60;;
15848;SDS011;8024;48.708;9.394;2023-02-22T02:38:00;7.17;;;6.03;;
15848;SDS011;8024;48.708;9.394;2023-02-22T02:40:33;8.00;;;6.33;;
15848;SDS011;8024;48.708;9.394;2023-02-22T02:43:05;7.07;;;6.37;;
15848;SDS011;8024;48.708;9.394;2023-02-22T02:45:38;7.33;;;6.00;;
15848;SDS011;8024;48.708;9.394;2023-02-22T02:48:12;6.33;;;5.73;;
15848;SDS011;8024;48.708;9.394;2023-02-22T02:50:41;6.73;;;6.03;;
15848;SDS011;8024;48.708;9.394;2023-02-22T02:53:12;7.73;;;5.93;;
15848;SDS011;8024;48.708;9.394;2023-02-22T02:55:42;7.40;;;6.10;;
15848;SDS011;8024;48.708;9.394;2023-02-22T02:58:10;8.17;;;6.40;;
15848;SDS011;8024;48.708;9.394;2023-02-22T03:00:43;8.37;;;6.13;;
15848;SDS011;8024;48.708;9.394;2023-02-22T03:06:32;8.77;;;5.53;;
15848;SDS011;8024;48.708;9.394;2023-02-22T03:09:14;7.37;;;5.50;;
15848;SDS011;8024;48.708;9.394;2023-02-22T03:11:53;6.43;;;5.83;;
15848;SDS011;8024;48.708;9.394;2023-02-22T03:14:32;7.27;;;6.10;;
15848;SDS011;8024;48.708;9.394;2023-02-22T03:17:04;8.53;;;5.60;;
15848;SDS011;8024;48.708;9.394;2023-02-22T03:19:40;10.63;;;5.90;;
15848;SDS011;8024;48.708;9.394;2023-02-22T03:22:15;8.33;;;6.17;;
15848;SDS011;8024;48.708;9.394;2023-02-22T03:24:48;6.57;;;5.40;;
15848;SDS011;8024;48.708;9.394;2023-02-22T03:27:23;6.60;;;5.77;;
15848;SDS011;8024;48.708;9.394;2023-02-22T03:29:54;5.93;;;5.17;;
15848;SDS011;8024;48.708;9.394;2023-02-22T03:32:26;6.87;;;5.63;;
15848;SDS011;8024;48.708;9.394;2023-02-22T03:34:56;9.40;;;5.60;;
15848;SDS011;8024;48.708;9.394;2023-02-22T03:37:28;9.27;;;6.10;;
15848;SDS011;8024;48.708;9.394;2023-02-22T03:39:58;6.67;;;5.87;;
15848;SDS011;8024;48.708;9.394;2023-02-22T03:42:32;5.63;;;5.13;;
15848;SDS011;8024;48.708;9.394;2023-02-22T03:45:02;7.60;;;6.00;;
15848;SDS011;8024;48.708;9.394;2023-02-22T03:47:34;8.43;;;6.20;;
15848;SDS011;8024;48.708;9.394;2023-02-22T03:50:06;7.77;;;5.70;;
15848;SDS011;8024;48.708;9.394;2023-02-22T03:52:38;7.90;;;5.70;;
15848;SDS011;8024;48.708;9.394;2023-02-22T03:55:05;6.63;;;5.97;;
15848;SDS011;8024;48.708;9.394;2023-02-22T03:57:35;8.63;;;5.33;;
15848;SDS011;8024;48.708;9.394;2023-02-22T04:00:05;8.03;;;6.03;;
15848;SDS011;8024;48.708;9.394;2023-02-22T04:02:35;5.67;;;5.17;;
15848;SDS011;8024;48.708;9.394;2023-02-22T04:05:03;7.90;;;6.23;;
15848;SDS011;8024;48.708;9.394;2023-02-22T04:07:30;6.87;;;6.17;;
15848;SDS011;8024;48.708;9.394;2023-02-22T04:09:59;6.90;;;5.77;;
15848;SDS011;8024;48.708;9.394;2023-02-22T04:12:27;7.50;;;5.77;;
15848;SDS011;8024;48.708;9.394;2023-02-22T04:14:54;6.63;;;5.30;;
15848;SDS011;8024;48.708;9.394;2023-02-22T04:17:21;7.33;;;5.90;;
15848;SDS011;8024;48.708;9.394;2023-02-22T04:19:48;7.30;;;5.77;;
15848;SDS011;8024;48.708;9.394;2023-02-22T04:22:16;8.40;;;5.57;;
15848;SDS011;8024;48.708;9.394;2023-02-22T04:24:43;5.87;;;5.37;;
15848;SDS011;8024;48.708;9.394;2023-02-22T04:27:11;7.03;;;6.03;;
15848;SDS011;8024;48.708;9.394;2023-02-22T04:29:38;8.07;;;6.07;;
15848;SDS011;8024;48.708;9.394;2023-02-22T04:32:06;6.53;;;5.70;;
15848;SDS011;8024;48.708;9.394;2023-02-22T04:34:33;6.50;;;5.57;;
15848;SDS011;8024;48.708;9.394;2023-02-22T04:37:00;6.10;;;5.50;;
15848;SDS011;8024;48.708;9.394;2023-02-22T04:39:27;6.33;;;5.47;;
15848;SDS011;8024;48.708;9.394;2023-02-22T04:41:55;6.53;;;5.93;;
15848;SDS011;8024;48.708;9.394;2023-02-22T04:44:23;7.47;;;6.20;;
15848;SDS011;8024;48.708;9.394;2023-02-22T04:46:50;7.57;;;6.20;;
15848;SDS011;8024;48.708;9.394;2023-02-22T04:49:17;7.80;;;5.57;;
15848;SDS011;8024;48.708;9.394;2023-02-22T04:51:44;8.93;;;6.00;;
15848;SDS011;8024;48.708;9.394;2023-02-22T04:54:12;6.30;;;5.70;;
15848;SDS011;8024;48.708;9.394;2023-02-22T04:56:41;6.77;;;6.17;;
15848;SDS011;8024;48.708;9.394;2023-02-22T04:59:08;6.83;;;6.07;;
15848;SDS011;8024;48.708;9.394;2023-02-22T05:01:37;6.67;;;6.07;;
15848;SDS011;8024;48.708;9.394;2023-02-22T05:04:04;6.43;;;5.83;;
15848;SDS011;8024;48.708;9.394;2023-02-22T05:06:32;7.03;;;6.13;;
15848;SDS011;8024;48.708;9.394;2023-02-22T05:08:59;7.43;;;6.60;;
15848;SDS011;8024;48.708;9.394;2023-02-22T05:11:26;6.03;;;5.43;;
15848;SDS011;8024;48.708;9.394;2023-02-22T05:13:54;7.23;;;5.70;;
15848;SDS011;8024;48.708;9.394;2023-02-22T05:16:21;9.43;;;6.07;;
15848;SDS011;8024;48.708;9.394;2023-02-22T05:18:49;7.47;;;6.77;;
15848;SDS011;8024;48.708;9.394;2023-02-22T05:21:17;9.13;;;7.33;;
15848;SDS011;8024;48.708;9.394;2023-02-22T05:23:44;8.13;;;7.20;;
15848;SDS011;8024;48.708;9.394;2023-02-22T05:26:11;7.93;;;7.13;;
15848;SDS011;8024;48.708;9.394;2023-02-22T05:28:38;8.10;;;7.13;;
15848;SDS011;8024;48.708;9.394;2023-02-22T05:31:05;7.23;;;6.50;;
15848;SDS011;8024;48.708;9.394;2023-02-22T05:33:33;7.13;;;6.53;;
15848;SDS011;8024;48.708;9.394;2023-02-22T05:36:01;8.30;;;6.73;;
15848;SDS011;8024;48.708;9.394;2023-02-22T05:38:28;7.97;;;6.77;;
15848;SDS011;8024;48.708;9.394;2023-02-22T05:40:56;8.10;;;6.60;;
15848;SDS011;8024;48.708;9.394;2023-02-22T05:43:24;8.00;;;7.03;;
15848;SDS011;8024;48.708;9.394;2023-02-22T05:45:51;8.57;;;7.67;;
15848;SDS011;8024;48.708;9.394;2023-02-22T05:48:18;8.40;;;7.17;;
15848;SDS011;8024;48.708;9.394;2023-02-22T05:50:45;7.20;;;6.50;;
15848;SDS011;8024;48.708;9.394;2023-02-22T05:53:15;8.93;;;7.57;;
15848;SDS011;8024;48.708;9.394;2023-02-22T05:55:42;9.00;;;7.27;;
15848;SDS011;8024;48.708;9.394;2023-02-22T05:58:09;7.90;;;6.97;;
15848;SDS011;8024;48.708;9.394;2023-02-22T06:00:36;7.27;;;6.20;;
15848;SDS011;8024;48.708;9.394;2023-02-22T06:03:04;7.70;;;6.90;;
15848;SDS011;8024;48.708;9.394;2023-02-22T06:05:33;8.33;;;6.63;;
15848;SDS011;8024;48.708;9.394;2023-02-22T06:08:00;10.73;;;8.13;;
15848;SDS011;8024;48.708;9.394;2023-02-22T06:10:30;7.63;;;6.57;;
15848;SDS011;8024;48.708;9.394;2023-02-22T06:12:58;7.87;;;6.50;;
15848;SDS011;8024;48.708;9.394;2023-02-22T06:15:27;7.93;;;7.13;;
15848;SDS011;8024;48.708;9.394;2023-02-22T06:17:55;7.53;;;6.70;;
15848;SDS011;8024;48.708;9.394;2023-02-22T06:20:25;6.27;;;5.67;;
15848;SDS011;8024;48.708;9.394;2023-02-22T06:22:56;8.70;;;6.00;;
15848;SDS011;8024;48.708;9.394;2023-02-22T06:25:24;7.43;;;6.30;;
15848;SDS011;8024;48.708;9.394;2023-02-22T06:27:53;6.93;;;6.23;;
15848;SDS011;8024;48.708;9.394;2023-02-22T06:30:21;6.63;;;6.07;;
15848;SDS011;8024;48.708;9.394;2023-02-22T06:32:49;6.13;;;5.53;;
15848;SDS011;8024;48.708;9.394;2023-02-22T06:35:16;6.80;;;6.10;;
15848;SDS011;8024;48.708;9.394;2023-02-22T06:37:44;6.03;;;5.43;;
15848;SDS011;8024;48.708;9.394;2023-02-22T06:40:12;6.97;;;5.80;;
15848;SDS011;8024;48.708;9.394;2023-02-22T06:42:39;9.23;;;7.00;;
15848;SDS011;8024;48.708;9.394;2023-02-22T06:45:08;6.67;;;6.07;;
15848;SDS011;8024;48.708;9.394;2023-02-22T06:47:39;7.03;;;5.73;;
15848;SDS011;8024;48.708;9.394;2023-02-22T06:50:07;6.90;;;6.20;;
15848;SDS011;8024;48.708;9.394;2023-02-22T06:52:43;6.97;;;6.27;;
15848;SDS011;8024;48.708;9.394;2023-02-22T06:55:13;8.23;;;7.43;;
15848;SDS011;8024;48.708;9.394;2023-02-22T06:57:43;8.00;;;6.37;;
15848;SDS011;8024;48.708;9.394;2023-02-22T07:00:13;7.23;;;6.23;;
15848;SDS011;8024;48.708;9.394;2023-02-22T07:02:41;8.07;;;6.80;;
15848;SDS011;8024;48.708;9.394;2023-02-22T07:05:09;6.47;;;5.87;;
15848;SDS011;8024;48.708;9.394;2023-02-22T07:07:37;7.03;;;6.17;;
15848;SDS011;8024;48.708;9.394;2023-02-22T07:10:05;5.97;;;5.27;;
15848;SDS011;8024;48.708;9.394;2023-02-22T07:12:33;6.47;;;5.60;;
15848;SDS011;8024;48.708;9.394;2023-02-22T07:15:00;7.33;;;6.27;;
15848;SDS011;8024;48.708;9.394;2023-02-22T07:17:29;8.13;;;5.83;;
15848;SDS011;8024;48.708;9.394;2023-02-22T07:19:57;7.57;;;6.70;;
15848;SDS011;8024;48.708;9.394;2023-02-22T07:22:24;6.97;;;6.27;;
15848;SDS011;8024;48.708;9.394;2023-02-22T07:24:51;7.57;;;6.30;;
15848;SDS011;8024;48.708;9.394;2023-02-22T07:27:19;6.63;;;5.43;;
15848;SDS011;8024;48.708;9.394;2023-02-22T07:29:46;8.07;;;6.67;;
15848;SDS011;8024;48.708;9.394;2023-02-22T07:32:13;9.07;;;6.20;;
15848;SDS011;8024;48.708;9.394;2023-02-22T07:34:42;7.67;;;6.87;;
15848;SDS011;8024;48.708;9.394;2023-02-22T07:37:09;8.20;;;6.10;;
15848;SDS011;8024;48.708;9.394;2023-02-22T07:39:36;7.33;;;6.50;;
15848;SDS011;8024;48.708;9.394;2023-02-22T07:42:06;6.50;;;5.80;;
15848;SDS011;8024;48.708;9.394;2023-02-22T07:44:33;6.87;;;6.17;;
15848;SDS011;8024;48.708;9.394;2023-02-22T07:47:01;8.00;;;6.70;;
15848;SDS011;8024;48.708;9.394;2023-02-22T07:49:28;6.83;;;5.80;;
15848;SDS011;8024;48.708;9.394;2023-02-22T07:51:56;7.33;;;5.90;;
15848;SDS011;8024;48.708;9.394;2023-02-22T07:54:24;6.90;;;5.77;;
15848;SDS011;8024;48.708;9.394;2023-02-22T07:56:51;6.40;;;5.53;;
15848;SDS011;8024;48.708;9.394;2023-02-22T07:59:18;6.13;;;5.63;;
15848;SDS011;8024;48.708;9.394;2023-02-22T08:01:47;9.07;;;5.93;;
15848;SDS011;8024;48.708;9.394;2023-02-22T08:04:15;6.93;;;6.23;;
15848;SDS011;8024;48.708;9.394;2023-02-22T08:06:42;7.17;;;5.83;;
15848;SDS011;8024;48.708;9.394;2023-02-22T08:09:11;7.03;;;6.33;;
15848;SDS011;8024;48.708;9.394;2023-02-22T08:11:38;6.87;;;6.07;;
15848;SDS011;8024;48.708;9.394;2023-02-22T08:14:05;7.77;;;6.40;;
15848;SDS011;8024;48.708;9.394;2023-02-22T08:16:33;7.10;;;6.40;;
15848;SDS011;8024;48.708;9.394;2023-02-22T08:19:00;7.03;;;6.20;;
15848;SDS011;8024;48.708;9.394;2023-02-22T08:21:27;7.10;;;6.40;;
15848;SDS011;8024;48.708;9.394;2023-02-22T08:23:54;7.03;;;5.67;;
15848;SDS011;8024;48.708;9.394;2023-02-22T08:26:23;6.97;;;6.27;;
15848;SDS011;8024;48.708;9.394;2023-02-22T08:31:27;7.07;;;6.40;;
15848;SDS011;8024;48.708;9.394;2023-02-22T08:33:54;7.53;;;5.90;;
15848;SDS011;8024;48.708;9.394;2023-02-22T08:36:21;8.03;;;6.90;;
15848;SDS011;8024;48.708;9.394;2023-02-22T08:38:48;8.47;;;7.03;;
15848;SDS011;8024;48.708;9.394;2023-02-22T08:41:15;8.93;;;7.57;;
15848;SDS011;8024;48.708;9.394;2023-02-22T08:43:44;6.80;;;5.97;;
15848;SDS011;8024;48.708;9.394;2023-02-22T08:46:11;7.57;;;6.43;;
15848;SDS011;8024;48.708;9.394;2023-02-22T08:48:38;7.43;;;6.50;;
15848;SDS011;8024;48.708;9.394;2023-02-22T08:51:15;9.10;;;6.50;;
15848;SDS011;8024;48.708;9.394;2023-02-22T08:53:42;8.83;;;6.43;;
15848;SDS011;8024;48.708;9.394;2023-02-22T08:56:09;8.83;;;7.03;;
15848;SDS011;8024;48.708;9.394;2023-02-22T08:58:36;8.73;;;6.60;;
15848;SDS011;8024;48.708;9.394;2023-02-22T09:01:05;7.40;;;6.80;;
15848;SDS011;8024;48.708;9.394;2023-02-22T09:03:33;8.80;;;6.67;;
15848;SDS011;8024;48.708;9.394;2023-02-22T09:06:00;7.03;;;6.27;;
15848;SDS011;8024;48.708;9.394;2023-02-22T09:08:28;8.67;;;6.97;;
15848;SDS011;8024;48.708;9.394;2023-02-22T09:10:55;8.87;;;6.80;;
15848;SDS011;8024;48.708;9.394;2023-02-22T09:13:22;8.90;;;6.77;;
15848;SDS011;8024;48.708;9.394;2023-02-22T09:15:50;7.33;;;6.40;;
15848;SDS011;8024;48.708;9.394;2023-02-22T09:18:18;9.50;;;6.47;;
15848;SDS011;8024;48.708;9.394;2023-02-22T09:20:45;8.53;;;7.43;;
15848;SDS011;8024;48.708;9.394;2023-02-22T09:23:12;7.87;;;7.07;;
15848;SDS011;8024;48.708;9.394;2023-02-22T09:25:40;9.43;;;6.57;;
15848;SDS011;8024;48.708;9.394;2023-02-22T09:28:07;9.47;;;7.40;;
15848;SDS011;8024;48.708;9.394;2023-02-22T09:30:35;8.33;;;7.33;;
15848;SDS011;8024;48.708;9.394;2023-02-22T09:33:04;7.90;;;7.10;;
15848;SDS011;8024;48.708;9.394;2023-02-22T09:35:35;8.60;;;7.37;;
15848;SDS011;8024;48.708;9.394;2023-02-22T09:38:06;9.77;;;8.07;;
15848;SDS011;8024;48.708;9.394;2023-02-22T09:40:34;12.60;;;7.43;;
15848;SDS011;8024;48.708;9.394;2023-02-22T09:43:13;10.20;;;8.73;;
15848;SDS011;8024;48.708;9.394;2023-02-22T09:45:53;11.13;;;7.97;;
15848;SDS011;8024;48.708;9.394;2023-02-22T09:48:30;13.23;;;8.33;;
15848;SDS011;8024;48.708;9.394;2023-02-22T09:51:02;11.40;;;7.63;;
15848;SDS011;8024;48.708;9.394;2023-02-22T09:53:39;8.27;;;7.47;;
15848;SDS011;8024;48.708;9.394;2023-02-22T09:56:11;9.30;;;7.87;;
15848;SDS011;8024;48.708;9.394;2023-02-22T09:58:43;9.83;;;8.63;;
15848;SDS011;8024;48.708;9.394;2023-02-22T10:01:15;10.47;;;8.30;;
15848;SDS011;8024;48.708;9.394;2023-02-22T10:03:49;9.47;;;8.13;;
15848;SDS011;8024;48.708;9.394;2023-02-22T10:06:20;12.20;;;8.30;;
15848;SDS011;8024;48.708;9.394;2023-02-22T10:08:50;8.93;;;8.00;;
15848;SDS011;8024;48.708;9.394;2023-02-22T10:11:23;10.87;;;8.90;;
15848;SDS011;8024;48.708;9.394;2023-02-22T10:14:10;10.97;;;8.30;;
15848;SDS011;8024;48.708;9.394;2023-02-22T10:16:53;10.90;;;7.83;;
15848;SDS011;8024;48.708;9.394;2023-02-22T10:19:29;11.37;;;8.87;;
15848;SDS011;8024;48.708;9.394;2023-02-22T10:22:09;10.63;;;9.00;;
15848;SDS011;8024;48.708;9.394;2023-02-22T10:24:49;8.73;;;7.73;;
15848;SDS011;8024;48.708;9.394;2023-02-22T10:27:25;11.70;;;9.10;;
15848;SDS011;8024;48.708;9.394;2023-02-22T10:29:58;10.47;;;8.47;;
15848;SDS011;8024;48.708;9.394;2023-02-22T10:32:31;10.03;;;8.67;;
15848;SDS011;8024;48.708;9.394;2023-02-22T10:35:12;11.20;;;8.43;;
15848;SDS011;8024;48.708;9.394;2023-02-22T10:37:46;9.87;;;8.23;;
15848;SDS011;8024;48.708;9.394;2023-02-22T10:40:18;9.83;;;8.83;;
15848;SDS011;8024;48.708;9.394;2023-02-22T10:42:55;9.70;;;8.70;;
15848;SDS011;8024;48.708;9.394;2023-02-22T10:45:26;13.73;;;8.37;;
15848;SDS011;8024;48.708;9.394;2023-02-22T10:47:56;11.27;;;8.33;;
15848;SDS011;8024;48.708;9.394;2023-02-22T10:50:26;8.13;;;7.33;;
15848;SDS011;8024;48.708;9.394;2023-02-22T10:52:56;13.17;;;8.47;;
15848;SDS011;8024;48.708;9.394;2023-02-22T10:55:23;10.07;;;7.90;;
15848;SDS011;8024;48.708;9.394;2023-02-22T10:57:51;12.40;;;8.33;;
15848;SDS011;8024;48.708;9.394;2023-02-22T11:00:28;11.37;;;8.60;;
15848;SDS011;8024;48.708;9.394;2023-02-22T11:02:57;9.73;;;7.43;;
15848;SDS011;8024;48.708;9.394;2023-02-22T11:05:29;9.00;;;7.87;;
15848;SDS011;8024;48.708;9.394;2023-02-22T11:08:15;11.67;;;8.07;;
15848;SDS011;8024;48.708;9.394;2023-02-22T11:10:50;9.07;;;7.10;;
15848;SDS011;8024;48.708;9.394;2023-02-22T11:13:22;12.07;;;8.57;;
15848;SDS011;8024;48.708;9.394;2023-02-22T11:15:51;11.47;;;8.03;;
15848;SDS011;8024;48.708;9.394;2023-02-22T11:18:21;13.80;;;8.03;;
15848;SDS011;8024;48.708;9.394;2023-02-22T11:20:57;10.83;;;8.63;;
15848;SDS011;8024;48.708;9.394;2023-02-22T11:23:31;17.60;;;13.40;;
15848;SDS011;8024;48.708;9.394;2023-02-22T11:26:00;22.30;;;15.60;;
15848;SDS011;8024;48.708;9.394;2023-02-22T11:28:31;9.77;;;7.57;;
15848;SDS011;8024;48.708;9.394;2023-02-22T11:31:07;10.10;;;7.40;;
15848;SDS011;8024;48.708;9.394;2023-02-22T11:33:38;6.40;;;5.73;;
15848;SDS011;8024;48.708;9.394;2023-02-22T11:36:11;8.07;;;6.20;;
15848;SDS011;8024;48.708;9.394;2023-02-22T11:38:56;8.97;;;7.43;;
15848;SDS011;8024;48.708;9.394;2023-02-22T11:41:25;9.63;;;7.27;;
15848;SDS011;8024;48.708;9.394;2023-02-22T11:43:54;8.63;;;7.00;;
15848;SDS011;8024;48.708;9.394;2023-02-22T11:46:39;11.00;;;7.20;;
15848;SDS011;8024;48.708;9.394;2023-02-22T11:49:07;8.23;;;7.10;;
15848;SDS011;8024;48.708;9.394;2023-02-22T11:51:44;8.73;;;6.87;;
15848;SDS011;8024;48.708;9.394;2023-02-22T11:54:38;10.33;;;7.00;;
15848;SDS011;8024;48.708;9.394;2023-02-22T11:57:14;10.67;;;6.97;;
15848;SDS011;8024;48.708;9.394;2023-02-22T11:59:52;8.07;;;6.33;;
15848;SDS011;8024;48.708;9.394;2023-02-22T12:02:39;11.47;;;7.40;;
15848;SDS011;8024;48.708;9.394;2023-02-22T12:05:20;10.27;;;5.97;;
15848;SDS011;8024;48.708;9.394;2023-02-22T12:07:57;10.57;;;6.10;;
15848;SDS011;8024;48.708;9.394;2023-02-22T12:10:40;7.67;;;5.20;;
15848;SDS011;8024;48.708;9.394;2023-02-22T12:13:17;14.60;;;6.73;;
15848;SDS011;8024;48.708;9.394;2023-02-22T12:15:58;7.57;;;5.63;;
15848;SDS011;8024;48.708;9.394;2023-02-22T12:18:36;8.37;;;6.00;;
15848;SDS011;8024;48.708;9.394;2023-02-22T12:21:08;15.20;;;7.23;;
15848;SDS011;8024;48.708;9.394;2023-02-22T12:23:41;14.00;;;7.67;;
15848;SDS011;8024;48.708;9.394;2023-02-22T12:26:13;9.83;;;7.00;;
15848;SDS011;8024;48.708;9.394;2023-02-22T12:28:46;23.17;;;8.03;;
15848;SDS011;8024;48.708;9.394;2023-02-22T12:31:24;9.77;;;6.20;;
15848;SDS011;8024;48.708;9.394;2023-02-22T12:33:57;11.67;;;6.37;;
15848;SDS011;8024;48.708;9.394;2023-02-22T12:36:32;11.50;;;6.13;;
15848;SDS011;8024;48.708;9.394;2023-02-22T12:39:04;6.73;;;5.90;;
15848;SDS011;8024;48.708;9.394;2023-02-22T12:41:50;8.73;;;5.63;;
15848;SDS011;8024;48.708;9.394;2023-02-22T12:44:22;14.23;;;6.63;;
15848;SDS011;8024;48.708;9.394;2023-02-22T12:46:54;7.40;;;5.63;;
15848;SDS011;8024;48.708;9.394;2023-02-22T12:49:25;10.70;;;6.70;;
15848;SDS011;8024;48.708;9.394;2023-02-22T12:52:01;49.23;;;12.33;;
15848;SDS011;8024;48.708;9.394;2023-02-22T12:54:38;7.60;;;5.13;;
15848;SDS011;8024;48.708;9.394;2023-02-22T12:57:13;7.83;;;5.80;;
15848;SDS011;8024;48.708;9.394;2023-02-22T12:59:45;7.00;;;5.97;;
15848;SDS011;8024;48.708;9.394;2023-02-22T13:02:17;9.47;;;6.43;;
15848;SDS011;8024;48.708;9.394;2023-02-22T13:04:46;6.83;;;5.87;;
15848;SDS011;8024;48.708;9.394;2023-02-22T13:07:17;9.90;;;6.83;;
15848;SDS011;8024;48.708;9.394;2023-02-22T13:10:02;9.70;;;6.43;;
15848;SDS011;8024;48.708;9.394;2023-02-22T13:12:52;8.53;;;6.73;;
15848;SDS011;8024;48.708;9.394;2023-02-22T13:15:28;7.53;;;6.73;;
15848;SDS011;8024;48.708;9.394;2023-02-22T13:18:01;7.17;;;6.47;;
15848;SDS011;8024;48.708;9.394;2023-02-22T13:20:36;9.13;;;7.07;;
15848;SDS011;8024;48.708;9.394;2023-02-22T13:23:08;10.60;;;7.20;;
15848;SDS011;8024;48.708;9.394;2023-02-22T13:25:40;8.03;;;6.37;;
15848;SDS011;8024;48.708;9.394;2023-02-22T13:28:19;9.70;;;6.40;;
15848;SDS011;8024;48.708;9.394;2023-02-22T13:31:03;8.37;;;6.43;;
15848;SDS011;8024;48.708;9.394;2023-02-22T13:33:47;12.93;;;8.50;;
15848;SDS011;8024;48.708;9.394;2023-02-22T13:36:35;10.13;;;7.03;;
15848;SDS011;8024;48.708;9.394;2023-02-22T13:39:20;9.77;;;7.00;;
15848;SDS011;8024;48.708;9.394;2023-02-22T13:42:24;9.10;;;6.73;;
15848;SDS011;8024;48.708;9.394;2023-02-22T13:45:27;9.13;;;6.73;;
15848;SDS011;8024;48.708;9.394;2023-02-22T13:51:22;9.43;;;7.13;;
15848;SDS011;8024;48.708;9.394;2023-02-22T13:54:12;8.83;;;6.87;;
15848;SDS011;8024;48.708;9.394;2023-02-22T13:56:44;8.27;;;6.50;;
15848;SDS011;8024;48.708;9.394;2023-02-22T13:59:24;8.37;;;6.27;;
15848;SDS011;8024;48.708;9.394;2023-02-22T14:01:55;9.23;;;6.13;;
15848;SDS011;8024;48.708;9.394;2023-02-22T14:04:35;8.20;;;6.33;;
15848;SDS011;8024;48.708;9.394;2023-02-22T14:13:03;5.53;;;4.70;;
15848;SDS011;8024;48.708;9.394;2023-02-22T14:15:31;9.60;;;5.20;;
15848;SDS011;8024;48.708;9.394;2023-02-22T14:17:59;8.20;;;5.40;;
15848;SDS011;8024;48.708;9.394;2023-02-22T14:20:28;6.00;;;5.40;;
15848;SDS011;8024;48.708;9.394;2023-02-22T14:25:52;8.47;;;5.87;;
15848;SDS011;8024;48.708;9.394;2023-02-22T14:28:34;8.07;;;5.67;;
15848;SDS011;8024;48.708;9.394;2023-02-22T14:31:04;8.13;;;5.37;;
15848;SDS011;8024;48.708;9.394;2023-02-22T14:36:24;7.53;;;5.20;;
15848;SDS011;8024;48.708;9.394;2023-02-22T14:38:53;8.97;;;5.97;;
15848;SDS011;8024;48.708;9.394;2023-02-22T14:41:25;9.87;;;6.23;;
15848;SDS011;8024;48.708;9.394;2023-02-22T14:43:54;7.37;;;5.83;;
15848;SDS011;8024;48.708;9.394;2023-02-22T14:46:24;8.60;;;6.17;;
15848;SDS011;8024;48.708;9.394;2023-02-22T14:48:57;8.33;;;5.77;;
15848;SDS011;8024;48.708;9.394;2023-02-22T14:51:30;8.00;;;6.23;;
15848;SDS011;8024;48.708;9.394;2023-02-22T14:54:06;8.43;;;6.23;;
15848;SDS011;8024;48.708;9.394;2023-02-22T14:56:38;6.93;;;6.13;;
15848;SDS011;8024;48.708;9.394;2023-02-22T14:59:14;9.17;;;6.53;;
15848;SDS011;8024;48.708;9.394;2023-02-22T15:01:44;8.23;;;7.13;;
15848;SDS011;8024;48.708;9.394;2023-02-22T15:04:20;8.80;;;7.10;;
15848;SDS011;8024;48.708;9.394;2023-02-22T15:06:50;8.87;;;7.57;;
15848;SDS011;8024;48.708;9.394;2023-02-22T15:09:19;9.47;;;7.27;;
15848;SDS011;8024;48.708;9.394;2023-02-22T15:11:49;9.70;;;7.70;;
15848;SDS011;8024;48.708;9.394;2023-02-22T15:14:18;8.23;;;7.23;;
15848;SDS011;8024;48.708;9.394;2023-02-22T15:16:47;10.97;;;8.10;;
15848;SDS011;8024;48.708;9.394;2023-02-22T15:19:17;8.43;;;7.30;;
15848;SDS011;8024;48.708;9.394;2023-02-22T15:21:50;12.27;;;7.27;;
15848;SDS011;8024;48.708;9.394;2023-02-22T15:24:20;12.40;;;8.27;;
15848;SDS011;8024;48.708;9.394;2023-02-22T15:26:50;10.60;;;7.57;;
15848;SDS011;8024;48.708;9.394;2023-02-22T15:29:19;9.70;;;7.87;;
15848;SDS011;8024;48.708;9.394;2023-02-22T15:31:49;9.80;;;8.80;;
15848;SDS011;8024;48.708;9.394;2023-02-22T15:34:18;11.03;;;8.93;;
15848;SDS011;8024;48.708;9.394;2023-02-22T15:36:50;11.90;;;9.17;;
15848;SDS011;8024;48.708;9.394;2023-02-22T15:39:20;12.00;;;9.30;;
15848;SDS011;8024;48.708;9.394;2023-02-22T15:42:00;12.03;;;9.23;;
15848;SDS011;8024;48.708;9.394;2023-02-22T15:44:33;10.67;;;8.60;;
15848;SDS011;8024;48.708;9.394;2023-02-22T15:47:02;13.07;;;9.00;;
15848;SDS011;8024;48.708;9.394;2023-02-22T15:49:29;12.47;;;9.20;;